sensor_id;sensor_type;location;lat;lon;timestamp;P1;durP1;ratioP1;P2;durP2;ratioP2
50417;SDS011;36346;48.280;14.292;2023-04-25T00:01:38;5.37;;;5.37;;
50417;SDS011;36346;48.280;14.292;2023-04-25T00:04:06;5.35;;;5.35;;
50417;SDS011;36346;48.280;14.292;2023-04-25T00:06:35;4.96;;;4.96;;
50417;SDS011;36346;48.280;14.292;2023-04-25T00:09:04;5.36;;;5.36;;
50417;SDS011;36346;48.280;14.292;2023-04-25T00:11:35;5.14;;;5.14;;
50417;SDS011;36346;48.280;14.292;2023-04-25T00:14:03;5.28;;;5.28;;
50417;SDS011;36346;48.280;14.292;2023-04-25T00:16:31;5.18;;;5.18;;
50417;SDS011;36346;48.280;14.292;2023-04-25T00:19:02;5.03;;;5.03;;
50417;SDS011;36346;48.280;14.292;2023-04-25T00:21:30;4.82;;;4.82;;
50417;SDS011;36346;48.280;14.292;2023-04-25T00:24:01;4.53;;;4.53;;
50417;SDS011;36346;48.280;14.292;2023-04-25T00:26:29;4.51;;;4.51;;
50417;SDS011;36346;48.280;14.292;2023-04-25T00:28:57;4.46;;;4.46;;
50417;SDS011;36346;48.280;14.292;2023-04-25T00:31:25;4.43;;;4.43;;
50417;SDS011;36346;48.280;14.292;2023-04-25T00:33:53;4.22;;;4.22;;
50417;SDS011;36346;48.280;14.292;2023-04-25T00:36:21;4.31;;;4.31;;
50417;SDS011;36346;48.280;14.292;2023-04-25T00:38:49;4.36;;;4.36;;
50417;SDS011;36346;48.280;14.292;2023-04-25T00:41:17;4.76;;;4.76;;
50417;SDS011;36346;48.280;14.292;2023-04-25T00:43:46;4.32;;;4.32;;
50417;SDS011;36346;48.280;14.292;2023-04-25T00:46:16;4.21;;;4.21;;
50417;SDS011;36346;48.280;14.292;2023-04-25T00:48:44;4.12;;;4.12;;
50417;SDS011;36346;48.280;14.292;2023-04-25T00:51:16;4.22;;;4.22;;
50417;SDS011;36346;48.280;14.292;2023-04-25T00:53:48;4.23;;;4.23;;
50417;SDS011;36346;48.280;14.292;2023-04-25T00:56:18;4.00;;;4.00;;
50417;SDS011;36346;48.280;14.292;2023-04-25T00:58:47;4.29;;;4.29;;
50417;SDS011;36346;48.280;14.292;2023-04-25T01:01:16;4.12;;;4.12;;
50417;SDS011;36346;48.280;14.292;2023-04-25T01:03:44;4.10;;;4.10;;
50417;SDS011;36346;48.280;14.292;2023-04-25T01:06:14;4.57;;;4.57;;
50417;SDS011;36346;48.280;14.292;2023-04-25T01:08:43;4.14;;;4.14;;
50417;SDS011;36346;48.280;14.292;2023-04-25T01:11:11;4.02;;;4.02;;
50417;SDS011;36346;48.280;14.292;2023-04-25T01:13:39;4.41;;;4.41;;
50417;SDS011;36346;48.280;14.292;2023-04-25T01:16:07;4.42;;;4.42;;
50417;SDS011;36346;48.280;14.292;2023-04-25T01:18:36;4.38;;;4.38;;
50417;SDS011;36346;48.280;14.292;2023-04-25T01:21:06;4.37;;;4.37;;
50417;SDS011;36346;48.280;14.292;2023-04-25T01:23:37;4.39;;;4.39;;
50417;SDS011;36346;48.280;14.292;2023-04-25T01:26:10;4.90;;;4.90;;
50417;SDS011;36346;48.280;14.292;2023-04-25T01:28:39;4.88;;;4.88;;
50417;SDS011;36346;48.280;14.292;2023-04-25T01:31:10;4.71;;;4.71;;
50417;SDS011;36346;48.280;14.292;2023-04-25T01:33:39;4.48;;;4.48;;
50417;SDS011;36346;48.280;14.292;2023-04-25T01:36:07;4.39;;;4.39;;
50417;SDS011;36346;48.280;14.292;2023-04-25T01:38:35;4.80;;;4.80;;
50417;SDS011;36346;48.280;14.292;2023-04-25T01:41:03;4.62;;;4.62;;
50417;SDS011;36346;48.280;14.292;2023-04-25T01:43:31;4.63;;;4.63;;
50417;SDS011;36346;48.280;14.292;2023-04-25T01:45:59;4.72;;;4.72;;
50417;SDS011;36346;48.280;14.292;2023-04-25T01:48:27;4.85;;;4.85;;
50417;SDS011;36346;48.280;14.292;2023-04-25T01:50:55;4.74;;;4.74;;
50417;SDS011;36346;48.280;14.292;2023-04-25T01:53:23;4.67;;;4.67;;
50417;SDS011;36346;48.280;14.292;2023-04-25T01:55:51;4.91;;;4.91;;
50417;SDS011;36346;48.280;14.292;2023-04-25T01:58:21;4.61;;;4.61;;
50417;SDS011;36346;48.280;14.292;2023-04-25T02:01:07;4.96;;;4.96;;
50417;SDS011;36346;48.280;14.292;2023-04-25T02:03:42;4.66;;;4.66;;
50417;SDS011;36346;48.280;14.292;2023-04-25T02:06:19;4.50;;;4.50;;
50417;SDS011;36346;48.280;14.292;2023-04-25T02:08:48;4.49;;;4.49;;
50417;SDS011;36346;48.280;14.292;2023-04-25T02:11:16;4.57;;;4.57;;
50417;SDS011;36346;48.280;14.292;2023-04-25T02:14:03;4.60;;;4.60;;
50417;SDS011;36346;48.280;14.292;2023-04-25T02:16:46;4.83;;;4.83;;
50417;SDS011;36346;48.280;14.292;2023-04-25T02:19:14;4.84;;;4.84;;
50417;SDS011;36346;48.280;14.292;2023-04-25T02:21:42;5.00;;;5.00;;
50417;SDS011;36346;48.280;14.292;2023-04-25T02:24:11;4.61;;;4.61;;
50417;SDS011;36346;48.280;14.292;2023-04-25T02:26:39;4.84;;;4.84;;
50417;SDS011;36346;48.280;14.292;2023-04-25T02:29:09;4.65;;;4.65;;
50417;SDS011;36346;48.280;14.292;2023-04-25T02:31:37;4.83;;;4.83;;
50417;SDS011;36346;48.280;14.292;2023-04-25T02:34:05;4.95;;;4.95;;
50417;SDS011;36346;48.280;14.292;2023-04-25T02:36:36;4.76;;;4.76;;
50417;SDS011;36346;48.280;14.292;2023-04-25T02:39:04;4.99;;;4.99;;
50417;SDS011;36346;48.280;14.292;2023-04-25T02:41:32;5.18;;;5.18;;
50417;SDS011;36346;48.280;14.292;2023-04-25T02:44:00;4.93;;;4.93;;
50417;SDS011;36346;48.280;14.292;2023-04-25T02:46:28;5.03;;;5.03;;
50417;SDS011;36346;48.280;14.292;2023-04-25T02:49:06;4.75;;;4.75;;
50417;SDS011;36346;48.280;14.292;2023-04-25T02:51:35;4.69;;;4.69;;
50417;SDS011;36346;48.280;14.292;2023-04-25T02:54:03;5.01;;;5.01;;
50417;SDS011;36346;48.280;14.292;2023-04-25T02:56:35;5.06;;;5.06;;
50417;SDS011;36346;48.280;14.292;2023-04-25T02:59:05;4.93;;;4.93;;
50417;SDS011;36346;48.280;14.292;2023-04-25T03:01:33;4.98;;;4.98;;
50417;SDS011;36346;48.280;14.292;2023-04-25T03:04:01;5.22;;;5.22;;
50417;SDS011;36346;48.280;14.292;2023-04-25T03:06:29;5.18;;;5.17;;
50417;SDS011;36346;48.280;14.292;2023-04-25T03:08:58;5.17;;;5.12;;
50417;SDS011;36346;48.280;14.292;2023-04-25T03:11:26;4.76;;;4.76;;
50417;SDS011;36346;48.280;14.292;2023-04-25T03:13:54;4.86;;;4.86;;
50417;SDS011;36346;48.280;14.292;2023-04-25T03:16:22;4.77;;;4.77;;
50417;SDS011;36346;48.280;14.292;2023-04-25T03:18:51;4.74;;;4.74;;
50417;SDS011;36346;48.280;14.292;2023-04-25T03:21:19;4.72;;;4.72;;
50417;SDS011;36346;48.280;14.292;2023-04-25T03:23:47;4.84;;;4.84;;
50417;SDS011;36346;48.280;14.292;2023-04-25T03:26:15;4.88;;;4.88;;
50417;SDS011;36346;48.280;14.292;2023-04-25T03:28:43;5.20;;;5.20;;
50417;SDS011;36346;48.280;14.292;2023-04-25T03:31:12;5.01;;;5.01;;
50417;SDS011;36346;48.280;14.292;2023-04-25T03:33:40;5.14;;;5.14;;
50417;SDS011;36346;48.280;14.292;2023-04-25T03:36:08;5.40;;;5.40;;
50417;SDS011;36346;48.280;14.292;2023-04-25T03:38:38;5.30;;;5.30;;
50417;SDS011;36346;48.280;14.292;2023-04-25T03:41:07;5.51;;;5.51;;
50417;SDS011;36346;48.280;14.292;2023-04-25T03:43:42;5.70;;;5.70;;
50417;SDS011;36346;48.280;14.292;2023-04-25T03:46:12;5.48;;;5.48;;
50417;SDS011;36346;48.280;14.292;2023-04-25T03:48:41;5.66;;;5.66;;
50417;SDS011;36346;48.280;14.292;2023-04-25T03:51:13;5.47;;;5.47;;
50417;SDS011;36346;48.280;14.292;2023-04-25T03:53:43;5.55;;;5.55;;
50417;SDS011;36346;48.280;14.292;2023-04-25T03:56:29;5.60;;;5.60;;
50417;SDS011;36346;48.280;14.292;2023-04-25T03:59:09;5.97;;;5.97;;
50417;SDS011;36346;48.280;14.292;2023-04-25T04:01:37;5.65;;;5.65;;
50417;SDS011;36346;48.280;14.292;2023-04-25T04:04:05;6.91;;;6.91;;
50417;SDS011;36346;48.280;14.292;2023-04-25T04:06:34;6.78;;;6.78;;
50417;SDS011;36346;48.280;14.292;2023-04-25T04:09:09;6.60;;;6.60;;
50417;SDS011;36346;48.280;14.292;2023-04-25T04:11:39;6.39;;;6.39;;
50417;SDS011;36346;48.280;14.292;2023-04-25T04:14:07;6.03;;;6.03;;
50417;SDS011;36346;48.280;14.292;2023-04-25T04:16:38;6.46;;;6.46;;
50417;SDS011;36346;48.280;14.292;2023-04-25T04:19:06;6.58;;;6.58;;
50417;SDS011;36346;48.280;14.292;2023-04-25T04:21:34;6.34;;;6.34;;
50417;SDS011;36346;48.280;14.292;2023-04-25T04:24:03;6.35;;;6.35;;
50417;SDS011;36346;48.280;14.292;2023-04-25T04:26:39;6.09;;;6.09;;
50417;SDS011;36346;48.280;14.292;2023-04-25T04:29:22;6.03;;;6.03;;
50417;SDS011;36346;48.280;14.292;2023-04-25T04:32:05;6.30;;;6.30;;
50417;SDS011;36346;48.280;14.292;2023-04-25T04:34:33;6.16;;;6.16;;
50417;SDS011;36346;48.280;14.292;2023-04-25T04:37:03;6.20;;;6.20;;
50417;SDS011;36346;48.280;14.292;2023-04-25T04:39:31;6.28;;;6.28;;
50417;SDS011;36346;48.280;14.292;2023-04-25T04:42:12;6.59;;;6.59;;
50417;SDS011;36346;48.280;14.292;2023-04-25T04:44:52;6.29;;;6.29;;
50417;SDS011;36346;48.280;14.292;2023-04-25T04:47:40;6.61;;;6.61;;
50417;SDS011;36346;48.280;14.292;2023-04-25T04:50:16;6.41;;;6.41;;
50417;SDS011;36346;48.280;14.292;2023-04-25T04:53:13;8.61;;;8.60;;
50417;SDS011;36346;48.280;14.292;2023-04-25T04:56:08;6.62;;;6.62;;
50417;SDS011;36346;48.280;14.292;2023-04-25T04:58:50;6.14;;;6.14;;
50417;SDS011;36346;48.280;14.292;2023-04-25T05:01:40;6.44;;;6.44;;
50417;SDS011;36346;48.280;14.292;2023-04-25T05:04:36;6.86;;;6.86;;
50417;SDS011;36346;48.280;14.292;2023-04-25T05:07:22;6.70;;;6.70;;
50417;SDS011;36346;48.280;14.292;2023-04-25T05:10:20;6.89;;;6.89;;
50417;SDS011;36346;48.280;14.292;2023-04-25T05:13:14;6.50;;;6.50;;
50417;SDS011;36346;48.280;14.292;2023-04-25T05:16:04;6.76;;;6.76;;
50417;SDS011;36346;48.280;14.292;2023-04-25T05:19:02;6.18;;;6.18;;
50417;SDS011;36346;48.280;14.292;2023-04-25T05:21:53;6.95;;;6.95;;
50417;SDS011;36346;48.280;14.292;2023-04-25T05:24:23;6.26;;;6.26;;
50417;SDS011;36346;48.280;14.292;2023-04-25T05:27:17;6.39;;;6.39;;
50417;SDS011;36346;48.280;14.292;2023-04-25T05:30:04;6.46;;;6.46;;
50417;SDS011;36346;48.280;14.292;2023-04-25T05:32:52;6.56;;;6.56;;
50417;SDS011;36346;48.280;14.292;2023-04-25T05:35:20;6.89;;;6.89;;
50417;SDS011;36346;48.280;14.292;2023-04-25T05:37:49;6.81;;;6.80;;
50417;SDS011;36346;48.280;14.292;2023-04-25T05:40:19;6.49;;;6.49;;
50417;SDS011;36346;48.280;14.292;2023-04-25T05:43:19;6.23;;;6.23;;
50417;SDS011;36346;48.280;14.292;2023-04-25T05:46:19;5.90;;;5.90;;
50417;SDS011;36346;48.280;14.292;2023-04-25T05:49:20;5.62;;;5.62;;
50417;SDS011;36346;48.280;14.292;2023-04-25T05:52:18;5.65;;;5.65;;
50417;SDS011;36346;48.280;14.292;2023-04-25T05:55:03;5.67;;;5.67;;
50417;SDS011;36346;48.280;14.292;2023-04-25T05:57:32;5.79;;;5.79;;
50417;SDS011;36346;48.280;14.292;2023-04-25T06:00:00;5.99;;;5.99;;
50417;SDS011;36346;48.280;14.292;2023-04-25T06:02:39;6.06;;;6.06;;
50417;SDS011;36346;48.280;14.292;2023-04-25T06:05:09;6.39;;;6.39;;
50417;SDS011;36346;48.280;14.292;2023-04-25T06:07:37;6.26;;;6.26;;
50417;SDS011;36346;48.280;14.292;2023-04-25T06:10:06;6.01;;;6.01;;
50417;SDS011;36346;48.280;14.292;2023-04-25T06:12:34;6.11;;;6.11;;
50417;SDS011;36346;48.280;14.292;2023-04-25T06:15:04;5.88;;;5.88;;
50417;SDS011;36346;48.280;14.292;2023-04-25T06:17:53;5.69;;;5.69;;
50417;SDS011;36346;48.280;14.292;2023-04-25T06:20:22;5.66;;;5.66;;
50417;SDS011;36346;48.280;14.292;2023-04-25T06:22:53;6.08;;;6.08;;
50417;SDS011;36346;48.280;14.292;2023-04-25T06:25:30;6.26;;;6.26;;
50417;SDS011;36346;48.280;14.292;2023-04-25T06:27:59;6.93;;;6.93;;
50417;SDS011;36346;48.280;14.292;2023-04-25T06:30:27;6.12;;;6.12;;
50417;SDS011;36346;48.280;14.292;2023-04-25T06:33:02;5.47;;;5.47;;
50417;SDS011;36346;48.280;14.292;2023-04-25T06:35:31;5.48;;;5.48;;
50417;SDS011;36346;48.280;14.292;2023-04-25T06:37:59;5.55;;;5.55;;
50417;SDS011;36346;48.280;14.292;2023-04-25T06:40:27;5.68;;;5.68;;
50417;SDS011;36346;48.280;14.292;2023-04-25T06:42:56;5.52;;;5.52;;
50417;SDS011;36346;48.280;14.292;2023-04-25T06:45:48;4.80;;;4.80;;
50417;SDS011;36346;48.280;14.292;2023-04-25T06:48:18;4.64;;;4.64;;
50417;SDS011;36346;48.280;14.292;2023-04-25T06:50:46;4.49;;;4.49;;
50417;SDS011;36346;48.280;14.292;2023-04-25T06:53:14;4.77;;;4.77;;
50417;SDS011;36346;48.280;14.292;2023-04-25T06:55:45;4.63;;;4.63;;
50417;SDS011;36346;48.280;14.292;2023-04-25T06:58:17;4.50;;;4.49;;
50417;SDS011;36346;48.280;14.292;2023-04-25T07:00:54;5.99;;;5.98;;
50417;SDS011;36346;48.280;14.292;2023-04-25T07:03:24;5.06;;;5.06;;
50417;SDS011;36346;48.280;14.292;2023-04-25T07:05:58;4.84;;;4.84;;
50417;SDS011;36346;48.280;14.292;2023-04-25T07:08:26;4.94;;;4.91;;
50417;SDS011;36346;48.280;14.292;2023-04-25T07:10:53;5.02;;;5.02;;
50417;SDS011;36346;48.280;14.292;2023-04-25T07:13:22;4.87;;;4.87;;
50417;SDS011;36346;48.280;14.292;2023-04-25T07:15:50;4.97;;;4.97;;
50417;SDS011;36346;48.280;14.292;2023-04-25T07:18:20;5.16;;;5.16;;
50417;SDS011;36346;48.280;14.292;2023-04-25T07:20:49;5.00;;;5.00;;
50417;SDS011;36346;48.280;14.292;2023-04-25T07:23:18;4.91;;;4.91;;
50417;SDS011;36346;48.280;14.292;2023-04-25T07:25:46;5.75;;;5.75;;
50417;SDS011;36346;48.280;14.292;2023-04-25T07:28:20;5.54;;;5.54;;
50417;SDS011;36346;48.280;14.292;2023-04-25T07:30:48;5.86;;;5.86;;
50417;SDS011;36346;48.280;14.292;2023-04-25T07:33:17;4.88;;;4.88;;
50417;SDS011;36346;48.280;14.292;2023-04-25T07:35:48;5.86;;;5.86;;
50417;SDS011;36346;48.280;14.292;2023-04-25T07:38:17;5.76;;;5.75;;
50417;SDS011;36346;48.280;14.292;2023-04-25T07:40:45;5.41;;;5.41;;
50417;SDS011;36346;48.280;14.292;2023-04-25T07:43:14;5.44;;;5.44;;
50417;SDS011;36346;48.280;14.292;2023-04-25T07:45:52;6.61;;;6.61;;
50417;SDS011;36346;48.280;14.292;2023-04-25T07:48:21;5.38;;;5.38;;
50417;SDS011;36346;48.280;14.292;2023-04-25T07:50:51;6.31;;;6.31;;
50417;SDS011;36346;48.280;14.292;2023-04-25T07:53:19;5.42;;;5.42;;
50417;SDS011;36346;48.280;14.292;2023-04-25T07:55:53;5.30;;;5.30;;
50417;SDS011;36346;48.280;14.292;2023-04-25T07:58:22;5.35;;;5.35;;
50417;SDS011;36346;48.280;14.292;2023-04-25T08:00:56;6.16;;;6.16;;
50417;SDS011;36346;48.280;14.292;2023-04-25T08:03:53;5.83;;;5.83;;
50417;SDS011;36346;48.280;14.292;2023-04-25T08:06:42;6.16;;;6.16;;
50417;SDS011;36346;48.280;14.292;2023-04-25T08:09:18;6.37;;;6.37;;
50417;SDS011;36346;48.280;14.292;2023-04-25T08:11:47;5.67;;;5.67;;
50417;SDS011;36346;48.280;14.292;2023-04-25T08:14:17;5.41;;;5.41;;
50417;SDS011;36346;48.280;14.292;2023-04-25T08:16:45;5.30;;;5.30;;
50417;SDS011;36346;48.280;14.292;2023-04-25T08:19:13;4.70;;;4.70;;
50417;SDS011;36346;48.280;14.292;2023-04-25T08:21:41;4.77;;;4.77;;
50417;SDS011;36346;48.280;14.292;2023-04-25T08:24:14;4.53;;;4.53;;
50417;SDS011;36346;48.280;14.292;2023-04-25T08:26:42;4.74;;;4.74;;
50417;SDS011;36346;48.280;14.292;2023-04-25T08:29:15;4.36;;;4.36;;
50417;SDS011;36346;48.280;14.292;2023-04-25T08:31:43;4.32;;;4.32;;
50417;SDS011;36346;48.280;14.292;2023-04-25T08:34:13;4.36;;;4.36;;
50417;SDS011;36346;48.280;14.292;2023-04-25T08:36:43;4.14;;;4.14;;
50417;SDS011;36346;48.280;14.292;2023-04-25T08:39:27;4.58;;;4.58;;
50417;SDS011;36346;48.280;14.292;2023-04-25T08:42:14;4.03;;;4.03;;
50417;SDS011;36346;48.280;14.292;2023-04-25T08:44:42;4.05;;;4.05;;
50417;SDS011;36346;48.280;14.292;2023-04-25T08:47:13;4.27;;;4.27;;
50417;SDS011;36346;48.280;14.292;2023-04-25T08:49:46;4.37;;;4.37;;
50417;SDS011;36346;48.280;14.292;2023-04-25T08:52:15;4.14;;;4.14;;
50417;SDS011;36346;48.280;14.292;2023-04-25T08:54:50;4.02;;;4.02;;
50417;SDS011;36346;48.280;14.292;2023-04-25T08:57:19;3.62;;;3.62;;
50417;SDS011;36346;48.280;14.292;2023-04-25T08:59:49;4.22;;;4.22;;
50417;SDS011;36346;48.280;14.292;2023-04-25T09:02:17;4.34;;;4.34;;
50417;SDS011;36346;48.280;14.292;2023-04-25T09:04:49;4.26;;;4.26;;
50417;SDS011;36346;48.280;14.292;2023-04-25T09:07:18;4.39;;;4.39;;
50417;SDS011;36346;48.280;14.292;2023-04-25T09:09:48;4.21;;;4.21;;
50417;SDS011;36346;48.280;14.292;2023-04-25T09:12:19;4.23;;;4.23;;
50417;SDS011;36346;48.280;14.292;2023-04-25T09:15:01;4.15;;;4.15;;
50417;SDS011;36346;48.280;14.292;2023-04-25T09:17:57;4.21;;;4.21;;
50417;SDS011;36346;48.280;14.292;2023-04-25T09:20:31;4.31;;;4.31;;
50417;SDS011;36346;48.280;14.292;2023-04-25T09:23:02;4.03;;;4.03;;
50417;SDS011;36346;48.280;14.292;2023-04-25T09:25:35;4.10;;;4.10;;
50417;SDS011;36346;48.280;14.292;2023-04-25T09:28:09;4.27;;;4.27;;
50417;SDS011;36346;48.280;14.292;2023-04-25T09:30:38;4.14;;;4.14;;
50417;SDS011;36346;48.280;14.292;2023-04-25T09:33:30;4.43;;;4.43;;
50417;SDS011;36346;48.280;14.292;2023-04-25T09:36:03;4.47;;;4.47;;
50417;SDS011;36346;48.280;14.292;2023-04-25T09:38:45;5.61;;;5.61;;
50417;SDS011;36346;48.280;14.292;2023-04-25T09:41:28;4.77;;;4.77;;
50417;SDS011;36346;48.280;14.292;2023-04-25T09:44:00;4.58;;;4.58;;
50417;SDS011;36346;48.280;14.292;2023-04-25T09:46:33;4.39;;;4.39;;
50417;SDS011;36346;48.280;14.292;2023-04-25T09:49:06;4.39;;;4.39;;
50417;SDS011;36346;48.280;14.292;2023-04-25T09:52:01;4.35;;;4.35;;
50417;SDS011;36346;48.280;14.292;2023-04-25T09:54:35;4.35;;;4.35;;
50417;SDS011;36346;48.280;14.292;2023-04-25T09:57:21;4.34;;;4.34;;
50417;SDS011;36346;48.280;14.292;2023-04-25T09:59:54;4.39;;;4.39;;
50417;SDS011;36346;48.280;14.292;2023-04-25T10:02:25;4.21;;;4.21;;
50417;SDS011;36346;48.280;14.292;2023-04-25T10:05:00;4.08;;;4.08;;
50417;SDS011;36346;48.280;14.292;2023-04-25T10:07:37;4.88;;;4.88;;
50417;SDS011;36346;48.280;14.292;2023-04-25T10:10:11;4.62;;;4.62;;
50417;SDS011;36346;48.280;14.292;2023-04-25T10:12:40;4.48;;;4.48;;
50417;SDS011;36346;48.280;14.292;2023-04-25T10:15:11;4.79;;;4.79;;
50417;SDS011;36346;48.280;14.292;2023-04-25T10:17:39;5.21;;;5.21;;
50417;SDS011;36346;48.280;14.292;2023-04-25T10:20:08;4.99;;;4.99;;
50417;SDS011;36346;48.280;14.292;2023-04-25T10:22:42;4.42;;;4.42;;
50417;SDS011;36346;48.280;14.292;2023-04-25T10:25:12;4.60;;;4.60;;
50417;SDS011;36346;48.280;14.292;2023-04-25T10:27:41;4.46;;;4.46;;
50417;SDS011;36346;48.280;14.292;2023-04-25T10:30:11;3.96;;;3.96;;
50417;SDS011;36346;48.280;14.292;2023-04-25T10:32:43;2.80;;;2.80;;
50417;SDS011;36346;48.280;14.292;2023-04-25T10:35:23;2.05;;;2.05;;
50417;SDS011;36346;48.280;14.292;2023-04-25T10:38:09;2.01;;;2.01;;
50417;SDS011;36346;48.280;14.292;2023-04-25T10:40:38;2.09;;;2.09;;
50417;SDS011;36346;48.280;14.292;2023-04-25T10:45:59;2.02;;;2.02;;
50417;SDS011;36346;48.280;14.292;2023-04-25T10:48:31;2.19;;;2.19;;
50417;SDS011;36346;48.280;14.292;2023-04-25T10:51:08;2.09;;;2.09;;
50417;SDS011;36346;48.280;14.292;2023-04-25T10:53:38;2.20;;;2.20;;
50417;SDS011;36346;48.280;14.292;2023-04-25T10:56:21;2.50;;;2.50;;
50417;SDS011;36346;48.280;14.292;2023-04-25T10:58:51;2.29;;;2.29;;
50417;SDS011;36346;48.280;14.292;2023-04-25T11:01:21;2.03;;;2.03;;
50417;SDS011;36346;48.280;14.292;2023-04-25T11:03:57;1.90;;;1.90;;
50417;SDS011;36346;48.280;14.292;2023-04-25T11:06:30;2.55;;;2.55;;
50417;SDS011;36346;48.280;14.292;2023-04-25T11:09:10;2.45;;;2.45;;
50417;SDS011;36346;48.280;14.292;2023-04-25T11:11:42;2.06;;;2.06;;
50417;SDS011;36346;48.280;14.292;2023-04-25T11:14:21;2.43;;;2.43;;
50417;SDS011;36346;48.280;14.292;2023-04-25T11:16:55;2.61;;;2.61;;
50417;SDS011;36346;48.280;14.292;2023-04-25T11:19:27;1.65;;;1.65;;
50417;SDS011;36346;48.280;14.292;2023-04-25T11:21:56;1.44;;;1.44;;
50417;SDS011;36346;48.280;14.292;2023-04-25T11:24:32;1.63;;;1.63;;
50417;SDS011;36346;48.280;14.292;2023-04-25T11:27:04;1.66;;;1.66;;
50417;SDS011;36346;48.280;14.292;2023-04-25T11:29:35;1.41;;;1.41;;
50417;SDS011;36346;48.280;14.292;2023-04-25T11:32:03;1.44;;;1.44;;
50417;SDS011;36346;48.280;14.292;2023-04-25T11:34:32;1.15;;;1.15;;
50417;SDS011;36346;48.280;14.292;2023-04-25T11:37:01;1.20;;;1.20;;
50417;SDS011;36346;48.280;14.292;2023-04-25T11:39:30;1.15;;;1.15;;
50417;SDS011;36346;48.280;14.292;2023-04-25T11:41:58;1.28;;;1.27;;
50417;SDS011;36346;48.280;14.292;2023-04-25T11:44:28;2.19;;;2.18;;
50417;SDS011;36346;48.280;14.292;2023-04-25T11:46:56;1.62;;;1.62;;
50417;SDS011;36346;48.280;14.292;2023-04-25T11:49:23;1.98;;;1.98;;
50417;SDS011;36346;48.280;14.292;2023-04-25T11:51:52;1.90;;;1.90;;
50417;SDS011;36346;48.280;14.292;2023-04-25T11:54:20;1.93;;;1.93;;
50417;SDS011;36346;48.280;14.292;2023-04-25T11:56:48;2.30;;;2.30;;
50417;SDS011;36346;48.280;14.292;2023-04-25T11:59:16;1.70;;;1.70;;
50417;SDS011;36346;48.280;14.292;2023-04-25T12:01:48;3.06;;;3.06;;
50417;SDS011;36346;48.280;14.292;2023-04-25T12:04:18;1.83;;;1.83;;
50417;SDS011;36346;48.280;14.292;2023-04-25T12:06:54;2.38;;;2.38;;
50417;SDS011;36346;48.280;14.292;2023-04-25T12:09:30;1.85;;;1.85;;
50417;SDS011;36346;48.280;14.292;2023-04-25T12:11:59;3.07;;;3.07;;
50417;SDS011;36346;48.280;14.292;2023-04-25T12:14:32;4.20;;;4.20;;
50417;SDS011;36346;48.280;14.292;2023-04-25T12:17:02;5.15;;;5.15;;
50417;SDS011;36346;48.280;14.292;2023-04-25T12:19:32;3.52;;;3.52;;
50417;SDS011;36346;48.280;14.292;2023-04-25T12:22:01;2.62;;;2.62;;
50417;SDS011;36346;48.280;14.292;2023-04-25T12:24:33;2.03;;;2.03;;
50417;SDS011;36346;48.280;14.292;2023-04-25T12:27:06;3.62;;;3.62;;
50417;SDS011;36346;48.280;14.292;2023-04-25T12:29:36;3.87;;;3.87;;
50417;SDS011;36346;48.280;14.292;2023-04-25T12:32:16;4.51;;;4.51;;
50417;SDS011;36346;48.280;14.292;2023-04-25T12:34:45;4.37;;;4.37;;
50417;SDS011;36346;48.280;14.292;2023-04-25T12:37:13;3.86;;;3.86;;
50417;SDS011;36346;48.280;14.292;2023-04-25T12:39:41;2.46;;;2.46;;
50417;SDS011;36346;48.280;14.292;2023-04-25T12:42:09;2.89;;;2.89;;
50417;SDS011;36346;48.280;14.292;2023-04-25T12:44:39;2.96;;;2.96;;
50417;SDS011;36346;48.280;14.292;2023-04-25T12:47:08;1.92;;;1.92;;
50417;SDS011;36346;48.280;14.292;2023-04-25T12:49:36;1.64;;;1.64;;
50417;SDS011;36346;48.280;14.292;2023-04-25T12:52:04;1.72;;;1.72;;
50417;SDS011;36346;48.280;14.292;2023-04-25T12:54:32;2.12;;;2.12;;
50417;SDS011;36346;48.280;14.292;2023-04-25T12:57:00;2.01;;;2.01;;
50417;SDS011;36346;48.280;14.292;2023-04-25T12:59:30;1.94;;;1.94;;
50417;SDS011;36346;48.280;14.292;2023-04-25T13:01:58;1.62;;;1.62;;
50417;SDS011;36346;48.280;14.292;2023-04-25T13:04:27;1.71;;;1.71;;
50417;SDS011;36346;48.280;14.292;2023-04-25T13:06:55;1.56;;;1.56;;
50417;SDS011;36346;48.280;14.292;2023-04-25T13:09:23;1.88;;;1.88;;
50417;SDS011;36346;48.280;14.292;2023-04-25T13:11:51;1.69;;;1.69;;
50417;SDS011;36346;48.280;14.292;2023-04-25T13:14:23;1.74;;;1.74;;
50417;SDS011;36346;48.280;14.292;2023-04-25T13:16:51;1.67;;;1.67;;
50417;SDS011;36346;48.280;14.292;2023-04-25T13:19:19;1.81;;;1.81;;
50417;SDS011;36346;48.280;14.292;2023-04-25T13:21:47;1.60;;;1.60;;
50417;SDS011;36346;48.280;14.292;2023-04-25T13:24:15;1.56;;;1.56;;
50417;SDS011;36346;48.280;14.292;2023-04-25T13:26:44;1.66;;;1.66;;
50417;SDS011;36346;48.280;14.292;2023-04-25T13:29:12;1.46;;;1.46;;
50417;SDS011;36346;48.280;14.292;2023-04-25T13:31:40;1.64;;;1.64;;
50417;SDS011;36346;48.280;14.292;2023-04-25T13:34:08;2.07;;;2.07;;
50417;SDS011;36346;48.280;14.292;2023-04-25T13:36:36;2.05;;;2.05;;
50417;SDS011;36346;48.280;14.292;2023-04-25T13:39:03;1.81;;;1.81;;
50417;SDS011;36346;48.280;14.292;2023-04-25T13:41:34;1.66;;;1.66;;
50417;SDS011;36346;48.280;14.292;2023-04-25T13:44:02;1.77;;;1.77;;
50417;SDS011;36346;48.280;14.292;2023-04-25T13:46:31;1.89;;;1.89;;
50417;SDS011;36346;48.280;14.292;2023-04-25T13:49:13;1.84;;;1.84;;
50417;SDS011;36346;48.280;14.292;2023-04-25T13:51:41;2.15;;;2.15;;
50417;SDS011;36346;48.280;14.292;2023-04-25T13:54:10;2.55;;;2.55;;
50417;SDS011;36346;48.280;14.292;2023-04-25T13:56:38;2.71;;;2.71;;
50417;SDS011;36346;48.280;14.292;2023-04-25T13:59:06;2.74;;;2.74;;
50417;SDS011;36346;48.280;14.292;2023-04-25T14:01:34;2.76;;;2.76;;
50417;SDS011;36346;48.280;14.292;2023-04-25T14:04:03;3.05;;;3.05;;
50417;SDS011;36346;48.280;14.292;2023-04-25T14:06:32;3.07;;;3.07;;
50417;SDS011;36346;48.280;14.292;2023-04-25T14:09:00;2.80;;;2.80;;
50417;SDS011;36346;48.280;14.292;2023-04-25T14:11:28;2.46;;;2.46;;
50417;SDS011;36346;48.280;14.292;2023-04-25T14:13:57;2.70;;;2.70;;
50417;SDS011;36346;48.280;14.292;2023-04-25T14:16:24;2.56;;;2.56;;
50417;SDS011;36346;48.280;14.292;2023-04-25T14:18:53;2.59;;;2.59;;
50417;SDS011;36346;48.280;14.292;2023-04-25T14:21:22;2.90;;;2.90;;
50417;SDS011;36346;48.280;14.292;2023-04-25T14:23:49;2.39;;;2.39;;
50417;SDS011;36346;48.280;14.292;2023-04-25T14:26:18;2.34;;;2.34;;
50417;SDS011;36346;48.280;14.292;2023-04-25T14:28:46;1.92;;;1.92;;
50417;SDS011;36346;48.280;14.292;2023-04-25T14:31:14;2.01;;;2.01;;
50417;SDS011;36346;48.280;14.292;2023-04-25T14:33:42;2.05;;;2.05;;
50417;SDS011;36346;48.280;14.292;2023-04-25T14:36:10;2.16;;;2.16;;
50417;SDS011;36346;48.280;14.292;2023-04-25T14:38:38;2.04;;;2.04;;
50417;SDS011;36346;48.280;14.292;2023-04-25T14:41:06;1.68;;;1.68;;
50417;SDS011;36346;48.280;14.292;2023-04-25T14:43:34;1.99;;;1.99;;
50417;SDS011;36346;48.280;14.292;2023-04-25T14:46:03;1.86;;;1.86;;
50417;SDS011;36346;48.280;14.292;2023-04-25T14:48:32;1.84;;;1.84;;
50417;SDS011;36346;48.280;14.292;2023-04-25T14:51:00;2.48;;;2.48;;
50417;SDS011;36346;48.280;14.292;2023-04-25T14:53:29;2.50;;;2.50;;
50417;SDS011;36346;48.280;14.292;2023-04-25T14:55:57;2.28;;;2.28;;
50417;SDS011;36346;48.280;14.292;2023-04-25T14:58:25;2.73;;;2.73;;
50417;SDS011;36346;48.280;14.292;2023-04-25T15:00:53;2.48;;;2.48;;
50417;SDS011;36346;48.280;14.292;2023-04-25T15:03:21;3.42;;;3.42;;
50417;SDS011;36346;48.280;14.292;2023-04-25T15:05:50;2.39;;;2.39;;